Terminal Aerodrome Forecast
Issued by NWS

Home | Current Version | Previous Version | Text Only | Print | Product List | Glossary On
Versions: 1 2 3 4 5 6 7 8 9 10 11 12 13 14 15
289
FTUS43 KMQT 050523
TAFSAW
TAF
KSAW 050523Z 0506/0606 35003KT P6SM SKC
     FM051800 06006KT P6SM FEW120
     FM052000 12007KT P6SM FEW110
     FM060200 18005KT P6SM FEW100=

USA.gov is the U.S. government's official web portal to all federal, state and local government web resources and services.